Time;durP1;ratioP1;P1;durP2;ratioP2;P2;SDS_P1;SDS_P2;PMS_P1;PMS_P2;Temp;Humidity;BMP_temperature;BMP_pressure;BME280_temperature;BME280_humidity;BME280_pressure;Samples;Min_cycle;Max_cycle;Signal;HPM_P1;HPM_P2
2021/03/15 00:01:26;;;;;;;;;;;;;;;-144.01;100.00;62166.59;5057630;28;19913;-73
2021/03/15 00:03:53;;;;;;;;;;;;;;;-144.01;100.00;62166.59;5077905;28;19947;-75
2021/03/15 00:06:20;;;;;;;;;;;;;;;-144.01;100.00;62166.59;5060391;28;19916;-72
2021/03/15 00:08:47;;;;;;;;;;;;;;;-144.01;100.00;62166.59;5077784;28;19939;-73
2021/03/15 00:11:14;;;;;;;;;;;;;;;-144.01;100.00;62166.59;5077642;28;19923;-72
2021/03/15 00:13:41;;;;;;;;;;;;;;;-144.01;100.00;62166.59;5077898;28;19923;-69
2021/03/15 00:16:08;;;;;;;;;;;;;;;-144.01;100.00;62166.59;5076748;28;19916;-74
2021/03/15 00:18:35;;;;;;;;;;;;;;;-144.01;100.00;62166.59;5077348;28;19916;-67
2021/03/15 00:21:02;;;;;;;;;;;;;;;-144.01;100.00;62166.59;5077838;28;19920;-66
2021/03/15 00:23:29;;;;;;;;;;;;;;;-144.01;100.00;62166.59;5077548;28;19923;-72
2021/03/15 00:25:55;;;;;;;;;;;;;;;-144.01;100.00;62166.59;5077537;28;19920;-67
2021/03/15 00:28:22;;;;;;;;;;;;;;;-144.01;100.00;62166.59;5075862;28;19919;-66
2021/03/15 00:30:49;;;;;;;;;;;;;;;-144.01;100.00;62166.59;5077142;28;20307;-74
2021/03/15 00:33:16;;;;;;;;;;;;;;;-144.01;100.00;62166.59;5063880;28;19913;-71
2021/03/15 00:35:43;;;;;;;;;;;;;;;-144.01;100.00;62166.59;5057135;28;19917;-72
2021/03/15 00:38:10;;;;;;;;;;;;;;;-144.01;100.00;62166.59;5073425;28;19920;-65
2021/03/15 00:40:37;;;;;;;;;;;;;;;-144.01;100.00;62166.59;5077062;28;20326;-72
2021/03/15 00:43:04;;;;;;;;;;;;;;;-144.01;100.00;62166.59;5067457;28;19920;-70
2021/03/15 00:45:31;;;;;;;;;;;;;;;-144.01;100.00;62166.59;5056815;28;19924;-72
2021/03/15 00:47:58;;;;;;;;;;;;;;;-144.01;100.00;62166.59;5070186;28;19947;-74
2021/03/15 00:50:29;;;;;;;;;;;;;;;-144.01;100.00;62166.59;5076403;28;19929;-66
2021/03/15 00:52:57;;;;;;;;;;;;;;;-144.01;100.00;62166.59;5076946;28;20303;-74
2021/03/15 00:55:24;;;;;;;;;;;;;;;-144.01;100.00;62166.59;5076828;28;20346;-72
2021/03/15 00:57:51;;;;;;;;;;;;;;;-144.01;100.00;62166.59;5080850;28;19915;-68
2021/03/15 01:00:21;;;;;;;;;;;;;;;-144.01;100.00;62166.59;5061907;28;20311;-56
2021/03/15 01:03:26;;;;;;;;;;;;;;;-144.01;100.00;62166.59;5046374;28;19916;-61
2021/03/15 01:05:58;;;;;;;;;;;;;;;-144.01;100.00;62166.59;5055634;28;19925;-68
2021/03/15 01:08:48;;;;;;;;;;;;;;;-144.01;100.00;62166.59;5031363;28;20213;-71
2021/03/15 01:11:38;;;;;;;;;;;;;;;-144.01;100.00;62166.59;5053332;28;19920;-74
2021/03/15 01:14:08;;;;;;;;;;;;;;;-144.01;100.00;62166.59;5056471;28;20255;-73
2021/03/15 01:16:58;;;;;;;;;;;;;;;-144.01;100.00;62166.59;5053939;28;20235;-71
2021/03/15 01:19:27;;;;;;;;;;;;;;;-144.01;100.00;62166.59;5055302;28;19920;-69
2021/03/15 01:21:54;;;;;;;;;;;;;;;-144.01;100.00;62166.59;5056420;28;19917;-71
2021/03/15 01:24:21;;;;;;;;;;;;;;;-144.01;100.00;62166.59;5056298;28;19921;-66
2021/03/15 01:26:48;;;;;;;;;;;;;;;-144.01;100.00;62166.59;5058799;28;19923;-70
2021/03/15 01:29:15;;;;;;;;;;;;;;;-144.01;100.00;62166.59;5074008;28;19916;-72
2021/03/15 01:31:42;;;;;;;;;;;;;;;-144.01;100.00;62166.59;5065595;28;19912;-66
2021/03/15 01:34:09;;;;;;;;;;;;;;;-144.01;100.00;62166.59;5075746;28;19913;-73
2021/03/15 01:36:35;;;;;;;;;;;;;;;-144.01;100.00;62166.59;5076380;28;20330;-70
2021/03/15 01:39:03;;;;;;;;;;;;;;;-144.01;100.00;62166.59;5076359;28;19912;-69
2021/03/15 01:41:30;;;;;;;;;;;;;;;-144.01;100.00;62166.59;5061409;28;19913;-71
2021/03/15 01:43:57;;;;;;;;;;;;;;;-144.01;100.00;62166.59;5056242;28;19917;-72
2021/03/15 01:46:24;;;;;;;;;;;;;;;-144.01;100.00;62166.59;5056319;28;19919;-66
2021/03/15 01:48:51;;;;;;;;;;;;;;;-144.01;100.00;62166.59;5076009;28;19920;-71
2021/03/15 01:51:18;;;;;;;;;;;;;;;-144.01;100.00;62166.59;5076229;28;19916;-71
2021/03/15 01:53:45;;;;;;;;;;;;;;;-144.01;100.00;62166.59;5058674;28;19916;-64
2021/03/15 01:56:12;;;;;;;;;;;;;;;-144.01;100.00;62166.59;5076196;28;19912;-71
2021/03/15 01:58:39;;;;;;;;;;;;;;;-144.01;100.00;62166.59;5076848;28;19913;-67
2021/03/15 02:01:06;;;;;;;;;;;;;;;-144.01;100.00;62166.59;5076116;28;19920;-62
2021/03/15 02:03:33;;;;;;;;;;;;;;;-144.01;100.00;62166.59;5079158;28;19923;-69
2021/03/15 02:06:01;;;;;;;;;;;;;;;-144.01;100.00;62166.59;5061522;28;19987;-63
2021/03/15 02:08:28;;;;;;;;;;;;;;;-144.01;100.00;62166.59;5079532;28;19919;-67
2021/03/15 02:10:55;;;;;;;;;;;;;;;-144.01;100.00;62166.59;5079738;28;19916;-73
2021/03/15 02:13:28;;;;;;;;;;;;;;;-144.01;100.00;62166.59;5079773;28;19916;-68
2021/03/15 02:16:14;;;;;;;;;;;;;;;-144.01;100.00;62166.59;5062060;28;19916;-69
2021/03/15 02:18:46;;;;;;;;;;;;;;;-144.01;100.00;62166.59;5079620;28;19916;-68
2021/03/15 02:21:25;;;;;;;;;;;;;;;-144.01;100.00;62166.59;5061741;28;19923;-71
2021/03/15 02:23:53;;;;;;;;;;;;;;;-144.01;100.00;62166.59;5079219;28;19920;-73
2021/03/15 02:26:36;;;;;;;;;;;;;;;-144.01;100.00;62166.59;5057690;28;19917;-72
2021/03/15 02:29:03;;;;;;;;;;;;;;;-144.01;100.00;62166.59;5058936;28;19912;-69
2021/03/15 02:31:49;;;;;;;;;;;;;;;-144.01;100.00;62166.59;5058387;28;19912;-70
2021/03/15 02:34:34;;;;;;;;;;;;;;;-144.01;100.00;62166.59;5070373;28;19916;-71
2021/03/15 02:37:01;;;;;;;;;;;;;;;-144.01;100.00;62166.59;5065709;28;19917;-69
2021/03/15 02:39:29;;;;;;;;;;;;;;;-144.01;100.00;62166.59;5058411;28;19913;-73
2021/03/15 02:41:56;;;;;;;;;;;;;;;-144.01;100.00;62166.59;5058348;28;19917;-64
2021/03/15 02:44:23;;;;;;;;;;;;;;;-144.01;100.00;62166.59;5077642;28;20315;-63
2021/03/15 02:46:50;;;;;;;;;;;;;;;-144.01;100.00;62166.59;5061460;28;19912;-55
2021/03/15 02:49:17;;;;;;;;;;;;;;;-144.01;100.00;62166.59;5057710;28;20323;-63
2021/03/15 02:51:44;;;;;;;;;;;;;;;-144.01;100.00;62166.59;5057974;28;19912;-57
2021/03/15 02:54:12;;;;;;;;;;;;;;;-144.01;100.00;62166.59;5058984;28;19920;-55
2021/03/15 02:56:40;;;;;;;;;;;;;;;-144.01;100.00;62166.59;5076814;28;19912;-62
2021/03/15 02:59:07;;;;;;;;;;;;;;;-144.01;100.00;62166.59;5061760;28;19916;-56
2021/03/15 03:01:34;;;;;;;;;;;;;;;-144.01;100.00;62166.59;5077739;28;19912;-54
2021/03/15 03:04:01;;;;;;;;;;;;;;;-144.01;100.00;62166.59;5077221;28;20239;-55
2021/03/15 03:06:29;;;;;;;;;;;;;;;-144.01;100.00;62166.59;5060874;28;19923;-56
2021/03/15 03:08:57;;;;;;;;;;;;;;;-144.01;100.00;62166.59;5060867;28;20303;-58
2021/03/15 03:11:24;;;;;;;;;;;;;;;-144.01;100.00;62166.59;5057360;28;19920;-64
2021/03/15 03:13:52;;;;;;;;;;;;;;;-144.01;100.00;62166.59;5058040;28;19947;-57
2021/03/15 03:16:19;;;;;;;;;;;;;;;-144.01;100.00;62166.59;5073199;28;20303;-64
2021/03/15 03:18:48;;;;;;;;;;;;;;;-144.01;100.00;62166.59;5078287;28;19919;-55
2021/03/15 03:21:15;;;;;;;;;;;;;;;-144.01;100.00;62166.59;5060801;28;20220;-51
2021/03/15 03:23:42;;;;;;;;;;;;;;;-144.01;100.00;62166.59;5078180;28;19913;-51
2021/03/15 03:26:09;;;;;;;;;;;;;;;-144.01;100.00;62166.59;5056773;28;19924;-55
2021/03/15 03:28:36;;;;;;;;;;;;;;;-144.01;100.00;62166.59;5071194;28;19912;-50
2021/03/15 03:31:04;;;;;;;;;;;;;;;-144.01;100.00;62166.59;5080639;28;19912;-51
2021/03/15 03:33:31;;;;;;;;;;;;;;;-144.01;100.00;62166.59;5098348;28;19912;-56
2021/03/15 03:35:58;;;;;;;;;;;;;;;-144.01;100.00;62166.59;5073281;28;19920;-56
2021/03/15 03:38:25;;;;;;;;;;;;;;;-144.01;100.00;62166.59;5056994;28;19913;-57
2021/03/15 03:40:52;;;;;;;;;;;;;;;-144.01;100.00;62166.59;5056984;28;20326;-56
2021/03/15 03:43:18;;;;;;;;;;;;;;;-144.01;100.00;62166.59;5057894;28;19916;-53
2021/03/15 03:45:45;;;;;;;;;;;;;;;-144.01;100.00;62166.59;5067974;28;20307;-53
2021/03/15 03:48:12;;;;;;;;;;;;;;;-144.01;100.00;62166.59;5077771;28;19912;-59
2021/03/15 03:50:39;;;;;;;;;;;;;;;-144.01;100.00;62166.59;5060112;28;19912;-55
2021/03/15 03:53:10;;;;;;;;;;;;;;;-144.01;100.00;62166.59;5077900;28;19919;-55
2021/03/15 03:55:41;;;;;;;;;;;;;;;-144.01;100.00;62166.59;5058818;28;19919;-56
2021/03/15 03:58:09;;;;;;;;;;;;;;;-144.01;100.00;62166.59;5056306;28;19924;-57
2021/03/15 04:00:36;;;;;;;;;;;;;;;-144.01;100.00;62166.59;5055895;28;19919;-57
2021/03/15 04:03:09;;;;;;;;;;;;;;;-144.01;100.00;62166.59;5053268;28;19913;-57
2021/03/15 04:05:36;;;;;;;;;;;;;;;-144.01;100.00;62166.59;5065101;28;20242;-62
2021/03/15 04:08:09;;;;;;;;;;;;;;;-144.01;100.00;62166.59;5077348;28;19912;-63
2021/03/15 04:10:36;;;;;;;;;;;;;;;-144.01;100.00;62166.59;5042703;28;19917;-60
2021/03/15 04:13:05;;;;;;;;;;;;;;;-144.01;100.00;62166.59;5056420;28;19913;-56
2021/03/15 04:15:32;;;;;;;;;;;;;;;-144.01;100.00;62166.59;5058142;28;20330;-55
2021/03/15 04:18:00;;;;;;;;;;;;;;;-144.01;100.00;62166.59;5052651;28;19913;-58
2021/03/15 04:20:36;;;;;;;;;;;;;;;-144.01;100.00;62166.59;5055364;28;19931;-60
2021/03/15 04:23:07;;;;;;;;;;;;;;;-144.01;100.00;62166.59;5056323;28;19919;-62
2021/03/15 04:25:35;;;;;;;;;;;;;;;-144.01;100.00;62166.59;5059144;28;19924;-54
2021/03/15 04:28:05;;;;;;;;;;;;;;;-144.01;100.00;62166.59;5069385;28;19947;-59
2021/03/15 04:30:32;;;;;;;;;;;;;;;-144.01;100.00;62166.59;5058565;28;20234;-60
2021/03/15 04:32:59;;;;;;;;;;;;;;;-144.01;100.00;62166.59;5039646;28;19913;-55
2021/03/15 04:35:27;;;;;;;;;;;;;;;-144.01;100.00;62166.59;5055969;28;19916;-60
2021/03/15 04:37:54;;;;;;;;;;;;;;;-144.01;100.00;62166.59;5056984;28;19919;-57
2021/03/15 04:40:22;;;;;;;;;;;;;;;-144.01;100.00;62166.59;5057141;28;19920;-55
2021/03/15 04:42:48;;;;;;;;;;;;;;;-144.01;100.00;62166.59;5057133;28;19944;-56
2021/03/15 04:45:16;;;;;;;;;;;;;;;-144.01;100.00;62166.59;5056736;28;19921;-60
2021/03/15 04:47:43;;;;;;;;;;;;;;;-144.01;100.00;62166.59;5055776;28;19913;-56
2021/03/15 04:50:11;;;;;;;;;;;;;;;-144.01;100.00;62166.59;5055921;28;19920;-58
2021/03/15 04:52:38;;;;;;;;;;;;;;;-144.01;100.00;62166.59;5058830;28;19919;-58
2021/03/15 04:55:05;;;;;;;;;;;;;;;-144.01;100.00;62166.59;5076604;28;19913;-58
2021/03/15 04:57:32;;;;;;;;;;;;;;;-144.01;100.00;62166.59;5078335;28;19919;-56
2021/03/15 05:00:00;;;;;;;;;;;;;;;-144.01;100.00;62166.59;5063282;28;19927;-55
2021/03/15 05:02:27;;;;;;;;;;;;;;;-144.01;100.00;62166.59;5060296;28;20234;-56
2021/03/15 05:04:53;;;;;;;;;;;;;;;-144.01;100.00;62166.59;5095934;28;19927;-55
2021/03/15 05:07:20;;;;;;;;;;;;;;;-144.01;100.00;62166.59;5076413;28;19919;-74
2021/03/15 05:09:48;;;;;;;;;;;;;;;-144.01;100.00;62166.59;5076438;28;19916;-55
2021/03/15 05:12:15;;;;;;;;;;;;;;;-144.01;100.00;62166.59;5055668;28;19913;-63
2021/03/15 05:14:42;;;;;;;;;;;;;;;-144.01;100.00;62166.59;5054059;28;19921;-59
2021/03/15 05:17:09;;;;;;;;;;;;;;;-144.01;100.00;62166.59;5070673;28;19916;-54
2021/03/15 05:19:37;;;;;;;;;;;;;;;-144.01;100.00;62166.59;5054075;28;19921;-55
2021/03/15 05:22:04;;;;;;;;;;;;;;;-144.01;100.00;62166.59;5056219;28;19920;-60
2021/03/15 05:24:31;;;;;;;;;;;;;;;-144.01;100.00;62166.59;5056111;28;20255;-58
2021/03/15 05:26:58;;;;;;;;;;;;;;;-144.01;100.00;62166.59;5071743;28;20246;-54
2021/03/15 05:29:25;;;;;;;;;;;;;;;-144.01;100.00;62166.59;5074475;28;19912;-58
2021/03/15 05:31:52;;;;;;;;;;;;;;;-144.01;100.00;62166.59;5076317;28;20219;-56
2021/03/15 05:34:19;;;;;;;;;;;;;;;-144.01;100.00;62166.59;5056139;28;19912;-55
2021/03/15 05:36:46;;;;;;;;;;;;;;;-144.01;100.00;62166.59;5070278;28;19916;-57
2021/03/15 05:39:13;;;;;;;;;;;;;;;-144.01;100.00;62166.59;5076063;28;19916;-58
2021/03/15 05:41:45;;;;;;;;;;;;;;;-144.01;100.00;62166.59;5075828;28;19912;-62
2021/03/15 05:44:24;;;;;;;;;;;;;;;-144.01;100.00;62166.59;5075933;28;20299;-54
2021/03/15 05:46:58;;;;;;;;;;;;;;;-144.01;100.00;62166.59;5068724;28;19923;-56
2021/03/15 05:49:28;;;;;;;;;;;;;;;-144.01;100.00;62166.59;5052745;28;20292;-57
2021/03/15 05:52:04;;;;;;;;;;;;;;;-144.01;100.00;62166.59;5056014;28;19919;-57
2021/03/15 05:54:50;;;;;;;;;;;;;;;-144.01;100.00;62166.59;5055968;28;20235;-57
2021/03/15 05:57:34;;;;;;;;;;;;;;;-144.01;100.00;62166.59;5074146;28;19913;-55
2021/03/15 06:00:06;;;;;;;;;;;;;;;-144.01;100.00;62166.59;5075970;28;19912;-59
2021/03/15 06:02:45;;;;;;;;;;;;;;;-144.01;100.00;62166.59;5067637;28;20235;-58
2021/03/15 06:05:12;;;;;;;;;;;;;;;-144.01;100.00;62166.59;5056187;28;19928;-57
2021/03/15 06:07:39;;;;;;;;;;;;;;;-144.01;100.00;62166.59;5056187;28;19916;-59
2021/03/15 06:10:07;;;;;;;;;;;;;;;-144.01;100.00;62166.59;5054894;28;19913;-60
2021/03/15 06:12:38;;;;;;;;;;;;;;;-144.01;100.00;62166.59;5054898;28;19912;-58
2021/03/15 06:15:06;;;;;;;;;;;;;;;-144.01;100.00;62166.59;5054950;28;19912;-55
2021/03/15 06:17:32;;;;;;;;;;;;;;;-144.01;100.00;62166.59;5075626;28;19943;-57
2021/03/15 06:19:59;;;;;;;;;;;;;;;-144.01;100.00;62166.59;5051340;28;19917;-53
2021/03/15 06:22:27;;;;;;;;;;;;;;;-144.01;100.00;62166.59;5052870;28;19913;-56
2021/03/15 06:24:54;;;;;;;;;;;;;;;-144.01;100.00;62166.59;5055694;28;19917;-57
2021/03/15 06:27:21;;;;;;;;;;;;;;;-144.01;100.00;62166.59;5054581;28;19921;-60
2021/03/15 06:29:48;;;;;;;;;;;;;;;-144.01;100.00;62166.59;5054368;28;19924;-56
2021/03/15 06:32:15;;;;;;;;;;;;;;;-144.01;100.00;62166.59;5063905;28;20292;-54
2021/03/15 06:34:43;;;;;;;;;;;;;;;-144.01;100.00;62166.59;5046518;28;19920;-62
2021/03/15 06:37:10;;;;;;;;;;;;;;;-144.01;100.00;62166.59;5056936;28;19923;-57
2021/03/15 06:39:37;;;;;;;;;;;;;;;-144.01;100.00;62166.59;5062475;28;19912;-55
2021/03/15 06:42:05;;;;;;;;;;;;;;;-144.01;100.00;62166.59;5054360;28;19938;-61
2021/03/15 06:44:32;;;;;;;;;;;;;;;-144.01;100.00;62166.59;5074470;28;20372;-58
2021/03/15 06:46:59;;;;;;;;;;;;;;;-144.01;100.00;62166.59;5075450;28;19917;-55
2021/03/15 06:49:26;;;;;;;;;;;;;;;-144.01;100.00;62166.59;5078949;28;20234;-57
2021/03/15 06:52:03;;;;;;;;;;;;;;;-144.01;100.00;62166.59;5057920;28;19913;-56
2021/03/15 06:54:30;;;;;;;;;;;;;;;-144.01;100.00;62166.59;5077756;28;19920;-56
2021/03/15 06:57:15;;;;;;;;;;;;;;;-144.01;100.00;62166.59;5064416;28;19916;-56
2021/03/15 06:59:50;;;;;;;;;;;;;;;-144.01;100.00;62166.59;5070836;28;19920;-58
2021/03/15 07:02:21;;;;;;;;;;;;;;;-144.01;100.00;62166.59;5078621;28;20315;-56
2021/03/15 07:04:48;;;;;;;;;;;;;;;-144.01;100.00;62166.59;5078898;28;19924;-56
2021/03/15 07:07:25;;;;;;;;;;;;;;;-144.01;100.00;62166.59;5078922;28;20625;-58
2021/03/15 07:09:52;;;;;;;;;;;;;;;-144.01;100.00;62166.59;5078838;28;19916;-57
2021/03/15 07:12:19;;;;;;;;;;;;;;;-144.01;100.00;62166.59;5078667;28;19916;-62
2021/03/15 07:14:47;;;;;;;;;;;;;;;-144.01;100.00;62166.59;5078785;28;19920;-62
2021/03/15 07:17:24;;;;;;;;;;;;;;;-144.01;100.00;62166.59;5078525;28;19912;-58
2021/03/15 07:19:51;;;;;;;;;;;;;;;-144.01;100.00;62166.59;5078667;28;20231;-59
2021/03/15 07:22:19;;;;;;;;;;;;;;;-144.01;100.00;62166.59;5077436;28;19912;-63
2021/03/15 07:25:00;;;;;;;;;;;;;;;-144.01;100.00;62166.59;5078647;28;19920;-63
2021/03/15 07:27:28;;;;;;;;;;;;;;;-144.01;100.00;62166.59;5077754;28;19917;-60
2021/03/15 07:29:55;;;;;;;;;;;;;;;-144.01;100.00;62166.59;5078122;28;19912;-60
2021/03/15 07:32:38;;;;;;;;;;;;;;;-144.01;100.00;62166.59;5073928;28;19920;-56
2021/03/15 07:35:24;;;;;;;;;;;;;;;-144.01;100.00;62166.59;5057157;28;20251;-56
2021/03/15 07:38:03;;;;;;;;;;;;;;;-144.01;100.00;62166.59;5072399;28;19912;-61
2021/03/15 07:40:32;;;;;;;;;;;;;;;-144.01;100.00;62166.59;5078172;28;20208;-60
2021/03/15 07:43:05;;;;;;;;;;;;;;;-144.01;100.00;62166.59;5077689;28;19912;-56
2021/03/15 07:45:33;;;;;;;;;;;;;;;-144.01;100.00;62166.59;5077876;28;19920;-57
2021/03/15 07:48:19;;;;;;;;;;;;;;;-144.01;100.00;62166.59;5077808;28;19916;-56
2021/03/15 07:51:02;;;;;;;;;;;;;;;-144.01;100.00;62166.59;5077988;28;19912;-59
2021/03/15 07:53:46;;;;;;;;;;;;;;;-144.01;100.00;62166.59;5077647;28;19913;-57
2021/03/15 07:56:17;;;;;;;;;;;;;;;-144.01;100.00;62166.59;5077743;28;19919;-57
2021/03/15 07:58:45;;;;;;;;;;;;;;;-144.01;100.00;62166.59;5076738;28;19916;-66
2021/03/15 08:01:12;;;;;;;;;;;;;;;-144.01;100.00;62166.59;5057101;28;20259;-59
2021/03/15 08:03:40;;;;;;;;;;;;;;;-144.01;100.00;62166.59;5067594;28;19919;-57
2021/03/15 08:06:07;;;;;;;;;;;;;;;-144.01;100.00;62166.59;5077604;28;19924;-60
2021/03/15 08:08:34;;;;;;;;;;;;;;;-144.01;100.00;62166.59;5077399;28;19920;-61
2021/03/15 08:11:02;;;;;;;;;;;;;;;-144.01;100.00;62166.59;5059392;28;20006;-62
2021/03/15 08:13:30;;;;;;;;;;;;;;;-144.01;100.00;62166.59;5065794;28;20302;-54
2021/03/15 08:16:00;;;;;;;;;;;;;;;-144.01;100.00;62166.59;5077231;28;19931;-56
2021/03/15 08:18:27;;;;;;;;;;;;;;;-144.01;100.00;62166.59;5074347;28;19916;-50
2021/03/15 08:21:14;;;;;;;;;;;;;;;-144.01;100.00;62166.59;5056246;28;19935;-63
2021/03/15 08:23:42;;;;;;;;;;;;;;;-144.01;100.00;62166.59;5064386;28;19919;-54
2021/03/15 08:26:10;;;;;;;;;;;;;;;-144.01;100.00;62166.59;5076965;28;19916;-60
2021/03/15 08:28:37;;;;;;;;;;;;;;;-144.01;100.00;62166.59;5076691;28;19917;-65
2021/03/15 08:31:18;;;;;;;;;;;;;;;-144.01;100.00;62166.59;5077036;28;19916;-55
2021/03/15 08:33:46;;;;;;;;;;;;;;;-144.01;100.00;62166.59;5051310;28;19912;-56
2021/03/15 08:36:13;;;;;;;;;;;;;;;-144.01;100.00;62166.59;5059482;28;20251;-57
2021/03/15 08:38:40;;;;;;;;;;;;;;;-144.01;100.00;62166.59;5059263;28;19916;-60
2021/03/15 08:41:07;;;;;;;;;;;;;;;-144.01;100.00;62166.59;5076894;28;19912;-60
2021/03/15 08:43:35;;;;;;;;;;;;;;;-144.01;100.00;62166.59;5076398;28;19916;-60
2021/03/15 08:46:05;;;;;;;;;;;;;;;-144.01;100.00;62166.59;5054938;28;20330;-58
2021/03/15 08:48:32;;;;;;;;;;;;;;;-144.01;100.00;62166.59;5055389;28;19920;-60
2021/03/15 08:51:00;;;;;;;;;;;;;;;-144.01;100.00;62166.59;5056651;28;19913;-59
2021/03/15 08:53:49;;;;;;;;;;;;;;;-144.01;100.00;62166.59;5056706;28;20335;-66
2021/03/15 08:56:19;;;;;;;;;;;;;;;-144.01;100.00;62166.59;5071359;28;19912;-65
2021/03/15 08:58:53;;;;;;;;;;;;;;;-144.01;100.00;62166.59;5076078;28;19916;-63
2021/03/15 09:01:20;;;;;;;;;;;;;;;-144.01;100.00;62166.59;5076588;28;19912;-64
2021/03/15 09:03:47;;;;;;;;;;;;;;;-144.01;100.00;62166.59;5076257;28;19923;-59
2021/03/15 09:06:14;;;;;;;;;;;;;;;-144.01;100.00;62166.59;5076105;28;19951;-64
2021/03/15 09:09:00;;;;;;;;;;;;;;;-144.01;100.00;62166.59;5076178;28;19917;-62
2021/03/15 09:11:36;;;;;;;;;;;;;;;-144.01;100.00;62166.59;5075893;28;19913;-61
2021/03/15 09:14:34;;;;;;;;;;;;;;;-144.01;100.00;62166.59;5076328;28;19912;-62
2021/03/15 09:17:21;;;;;;;;;;;;;;;-144.01;100.00;62166.59;5062949;28;19920;-64
2021/03/15 09:19:49;;;;;;;;;;;;;;;-144.01;100.00;62166.59;5063901;28;20300;-63
2021/03/15 09:22:26;;;;;;;;;;;;;;;-144.01;100.00;62166.59;5056245;28;20324;-64
2021/03/15 09:25:03;;;;;;;;;;;;;;;-144.01;100.00;62166.59;5056183;28;19912;-56
2021/03/15 09:27:33;;;;;;;;;;;;;;;-144.01;100.00;62166.59;5067993;28;20235;-54
2021/03/15 09:30:11;;;;;;;;;;;;;;;-144.01;100.00;62166.59;5096475;28;19922;-59
2021/03/15 09:32:40;;;;;;;;;;;;;;;-144.01;100.00;62166.59;5082515;28;19945;-51
2021/03/15 09:35:16;;;;;;;;;;;;;;;-144.01;100.00;62166.59;5076230;28;19916;-57
2021/03/15 09:37:48;;;;;;;;;;;;;;;-144.01;100.00;62166.59;5075761;28;19916;-57
2021/03/15 09:40:15;;;;;;;;;;;;;;;-144.01;100.00;62166.59;5058586;28;19916;-55
2021/03/15 09:42:43;;;;;;;;;;;;;;;-144.01;100.00;62166.59;5068092;28;19916;-53
2021/03/15 09:45:13;;;;;;;;;;;;;;;-144.01;100.00;62166.59;5076123;28;19912;-59
2021/03/15 09:47:40;;;;;;;;;;;;;;;-144.01;100.00;62166.59;5075432;28;19920;-55
2021/03/15 09:50:17;;;;;;;;;;;;;;;-144.01;100.00;62166.59;5076120;28;19919;-57
2021/03/15 09:52:50;;;;;;;;;;;;;;;-144.01;100.00;62166.59;5071942;28;19917;-56
2021/03/15 09:55:20;;;;;;;;;;;;;;;-144.01;100.00;62166.59;5055562;28;20410;-58
2021/03/15 09:57:47;;;;;;;;;;;;;;;-144.01;100.00;62166.59;5076630;28;19912;-59
2021/03/15 10:00:37;;;;;;;;;;;;;;;-144.01;100.00;62166.59;5055332;28;19917;-58
2021/03/15 10:03:21;;;;;;;;;;;;;;;-144.01;100.00;62166.59;5035175;28;19924;-58
2021/03/15 10:06:08;;;;;;;;;;;;;;;-144.01;100.00;62166.59;5051346;28;19928;-58
2021/03/15 10:09:10;;;;;;;;;;;;;;;-144.01;100.00;62166.59;5051602;28;19912;-61
2021/03/15 10:11:56;;;;;;;;;;;;;;;-144.01;100.00;62166.59;5072052;28;19912;-58
2021/03/15 10:14:41;;;;;;;;;;;;;;;-144.01;100.00;62166.59;5067641;28;20236;-57
2021/03/15 10:17:20;;;;;;;;;;;;;;;-144.01;100.00;62166.59;5075427;28;19912;-61
2021/03/15 10:19:56;;;;;;;;;;;;;;;-144.01;100.00;62166.59;5054743;28;19916;-63
2021/03/15 10:22:23;;;;;;;;;;;;;;;-144.01;100.00;62166.59;5073526;28;19912;-58
2021/03/15 10:24:56;;;;;;;;;;;;;;;-144.01;100.00;62166.59;5038884;28;19913;-55
2021/03/15 10:27:29;;;;;;;;;;;;;;;-144.01;100.00;62166.59;5047857;28;19928;-55
2021/03/15 10:29:56;;;;;;;;;;;;;;;-144.01;100.00;62166.59;5058445;28;19913;-62
2021/03/15 10:32:25;;;;;;;;;;;;;;;-144.01;100.00;62166.59;5059248;28;19983;-58
2021/03/15 10:34:53;;;;;;;;;;;;;;;-144.01;100.00;62166.59;5058269;28;20259;-58
2021/03/15 10:37:21;;;;;;;;;;;;;;;-144.01;100.00;62166.59;5041898;28;19913;-50
2021/03/15 10:39:54;;;;;;;;;;;;;;;-144.01;100.00;62166.59;5074905;28;20223;-60
2021/03/15 10:42:23;;;;;;;;;;;;;;;-144.01;100.00;62166.59;5042640;28;20331;-55
2021/03/15 10:44:51;;;;;;;;;;;;;;;-144.01;100.00;62166.59;5038025;28;19913;-63
2021/03/15 10:47:25;;;;;;;;;;;;;;;-144.01;100.00;62166.59;5062024;28;19923;-59
2021/03/15 10:49:53;;;;;;;;;;;;;;;-144.01;100.00;62166.59;5057992;28;19920;-61
2021/03/15 10:52:41;;;;;;;;;;;;;;;-144.01;100.00;62166.59;5057747;28;19913;-59
2021/03/15 10:55:15;;;;;;;;;;;;;;;-144.01;100.00;62166.59;5058004;28;20295;-57
2021/03/15 10:58:03;;;;;;;;;;;;;;;-144.01;100.00;62166.59;5066220;28;20212;-56
2021/03/15 11:00:42;;;;;;;;;;;;;;;-144.01;100.00;62166.59;5059714;28;19923;-55
2021/03/15 11:03:19;;;;;;;;;;;;;;;-144.01;100.00;62166.59;5078715;28;19918;-55
2021/03/15 11:05:46;;;;;;;;;;;;;;;-144.01;100.00;62166.59;5066267;28;19924;-58
2021/03/15 11:08:19;;;;;;;;;;;;;;;-144.01;100.00;62166.59;5057616;28;19912;-56
2021/03/15 11:10:47;;;;;;;;;;;;;;;-144.01;100.00;62166.59;5051090;28;19920;-63
2021/03/15 11:13:19;;;;;;;;;;;;;;;-144.01;100.00;62166.59;5058567;28;19916;-56
2021/03/15 11:15:54;;;;;;;;;;;;;;;-144.01;100.00;62166.59;5068328;28;19913;-56
2021/03/15 11:18:29;;;;;;;;;;;;;;;-144.01;100.00;62166.59;5076526;28;19920;-56
2021/03/15 11:21:01;;;;;;;;;;;;;;;-144.01;100.00;62166.59;5057388;28;19913;-56
2021/03/15 11:23:40;;;;;;;;;;;;;;;-144.01;100.00;62166.59;5057174;28;20209;-58
2021/03/15 11:26:19;;;;;;;;;;;;;;;-144.01;100.00;62166.59;5056974;28;19927;-51
2021/03/15 11:28:51;;;;;;;;;;;;;;;-144.01;100.00;62166.59;5076891;28;20321;-56
2021/03/15 11:31:29;;;;;;;;;;;;;;;-144.01;100.00;62166.59;5054827;28;20132;-55
2021/03/15 11:34:02;;;;;;;;;;;;;;;-144.01;100.00;62166.59;5053761;28;19917;-51
2021/03/15 11:36:44;;;;;;;;;;;;;;;-144.01;100.00;62166.59;5057078;28;19917;-52
2021/03/15 11:39:12;;;;;;;;;;;;;;;-144.01;100.00;62166.59;5064637;28;19923;-54
2021/03/15 11:41:55;;;;;;;;;;;;;;;-144.01;100.00;62166.59;5057367;28;20291;-57
2021/03/15 11:44:24;;;;;;;;;;;;;;;-144.01;100.00;62166.59;5054971;28;20292;-59
2021/03/15 11:46:51;;;;;;;;;;;;;;;-144.01;100.00;62166.59;5058019;28;19917;-55
2021/03/15 11:49:25;;;;;;;;;;;;;;;-144.01;100.00;62166.59;5062763;28;19919;-56
2021/03/15 11:52:03;;;;;;;;;;;;;;;-144.01;100.00;62166.59;5057241;28;20311;-54
2021/03/15 11:54:53;;;;;;;;;;;;;;;-144.01;100.00;62166.59;5058668;28;19916;-54
2021/03/15 11:57:25;;;;;;;;;;;;;;;-144.01;100.00;62166.59;5087121;28;20330;-49
2021/03/15 11:59:53;;;;;;;;;;;;;;;-144.01;100.00;62166.59;5077672;28;19912;-48
2021/03/15 12:02:27;;;;;;;;;;;;;;;-144.01;100.00;62166.59;5055338;28;19920;-56
2021/03/15 12:04:59;;;;;;;;;;;;;;;-144.01;100.00;62166.59;5053515;28;19916;-55
2021/03/15 12:07:26;;;;;;;;;;;;;;;-144.01;100.00;62166.59;5054756;28;19917;-57
2021/03/15 12:09:58;;;;;;;;;;;;;;;-144.01;100.00;62166.59;5061891;28;20320;-53
2021/03/15 12:12:28;;;;;;;;;;;;;;;-144.01;100.00;62166.59;5055948;28;19913;-55
2021/03/15 12:15:00;;;;;;;;;;;;;;;-144.01;100.00;62166.59;5051110;28;19916;-54
2021/03/15 12:17:28;;;;;;;;;;;;;;;-144.01;100.00;62166.59;5089879;28;19917;-54
2021/03/15 12:19:57;;;;;;;;;;;;;;;-144.01;100.00;62166.59;5068741;28;19912;-55
2021/03/15 12:22:41;;;;;;;;;;;;;;;-144.01;100.00;62166.59;5056570;28;19912;-54
2021/03/15 12:25:09;;;;;;;;;;;;;;;-144.01;100.00;62166.59;5063674;28;19920;-54
2021/03/15 12:27:43;;;;;;;;;;;;;;;-144.01;100.00;62166.59;5069169;28;19927;-53
2021/03/15 12:30:11;;;;;;;;;;;;;;;-144.01;100.00;62166.59;5066028;28;19943;-55
2021/03/15 12:32:38;;;;;;;;;;;;;;;-144.01;100.00;62166.59;5059364;28;19916;-54
2021/03/15 12:35:06;;;;;;;;;;;;;;;-144.01;100.00;62166.59;5056044;28;19916;-54
2021/03/15 12:37:34;;;;;;;;;;;;;;;-144.01;100.00;62166.59;5057563;28;19917;-54